createdAt,value
2018-04-26T00:01:15.187Z,10.90
2018-04-26T00:03:41.669Z,10.90
2018-04-26T00:06:08.889Z,10.70
2018-04-26T00:08:35.369Z,10.80
2018-04-26T00:11:01.882Z,10.80
2018-04-26T00:13:29.284Z,10.90
2018-04-26T00:15:55.771Z,10.90
2018-04-26T00:18:22.286Z,10.90
2018-04-26T00:20:48.747Z,10.90
2018-04-26T00:23:16.079Z,10.80
2018-04-26T00:25:42.538Z,10.80
2018-04-26T00:28:09.105Z,10.80
2018-04-26T00:30:35.575Z,10.80
2018-04-26T00:33:02.040Z,10.70
2018-04-26T00:35:28.620Z,10.70
2018-04-26T00:37:55.186Z,10.70
2018-04-26T00:40:21.727Z,10.70
2018-04-26T00:42:48.202Z,10.70
2018-04-26T00:45:14.685Z,10.70
2018-04-26T00:47:41.184Z,10.70
2018-04-26T00:50:07.705Z,10.80
2018-04-26T00:52:34.896Z,10.80
2018-04-26T00:55:01.446Z,10.80
2018-04-26T00:57:28.701Z,10.90
2018-04-26T00:59:55.204Z,10.90
2018-04-26T01:02:21.703Z,10.80
2018-04-26T01:04:48.228Z,10.80
2018-04-26T01:07:14.669Z,10.70
2018-04-26T01:09:41.170Z,10.70
2018-04-26T01:12:07.628Z,10.60
2018-04-26T01:14:34.106Z,10.50
2018-04-26T01:17:00.590Z,10.50
2018-04-26T01:19:27.047Z,10.50
2018-04-26T01:21:54.277Z,10.50
2018-04-26T01:24:20.802Z,10.40
2018-04-26T01:26:47.323Z,10.40
2018-04-26T01:29:14.512Z,10.40
2018-04-26T01:31:41.025Z,10.40
2018-04-26T01:34:07.701Z,10.40
2018-04-26T01:36:47.073Z,10.40
2018-04-26T01:39:13.574Z,10.40
2018-04-26T01:41:40.122Z,10.50
2018-04-26T01:44:07.380Z,10.60
2018-04-26T01:46:33.851Z,10.50
2018-04-26T01:49:00.323Z,10.60
2018-04-26T01:51:27.719Z,10.70
2018-04-26T01:53:54.863Z,10.60
2018-04-26T01:56:21.411Z,10.40
2018-04-26T02:01:40.955Z,10.20
2018-04-26T02:04:08.169Z,10.00
2018-04-26T02:06:35.561Z,10.00
2018-04-26T02:09:02.196Z,9.90
2018-04-26T02:11:30.152Z,9.70
2018-04-26T02:13:56.711Z,9.70
2018-04-26T02:16:23.991Z,9.60
2018-04-26T02:18:50.549Z,9.60
2018-04-26T02:21:17.647Z,9.60
2018-04-26T02:23:44.937Z,9.40
2018-04-26T02:26:11.467Z,9.40
2018-04-26T02:28:37.993Z,9.40
2018-04-26T02:31:05.202Z,9.30
2018-04-26T02:33:31.709Z,9.30
2018-04-26T02:35:58.245Z,9.30
2018-04-26T02:38:24.777Z,9.40
2018-04-26T02:40:51.339Z,9.50
2018-04-26T02:43:17.877Z,9.50
2018-04-26T02:45:44.442Z,9.50
2018-04-26T02:48:11.732Z,9.60
2018-04-26T02:50:38.232Z,9.60
2018-04-26T02:53:05.139Z,9.50
2018-04-26T02:55:31.663Z,9.40
2018-04-26T02:57:58.161Z,9.30
2018-04-26T03:00:24.608Z,9.30
2018-04-26T03:02:51.103Z,9.20
2018-04-26T03:05:17.597Z,9.30
2018-04-26T03:07:45.034Z,9.40
2018-04-26T03:10:11.506Z,9.50
2018-04-26T03:12:38.836Z,9.50
2018-04-26T03:15:05.336Z,9.50
2018-04-26T03:17:32.622Z,9.50
2018-04-26T03:19:59.162Z,9.50
2018-04-26T03:32:10.663Z,9.50
2018-04-26T03:34:37.120Z,9.50
2018-04-26T03:37:04.353Z,9.50
2018-04-26T03:39:30.834Z,9.50
2018-04-26T03:41:57.319Z,9.60
2018-04-26T03:44:25.348Z,9.70
2018-04-26T03:46:51.894Z,9.80
2018-04-26T03:49:18.431Z,9.80
2018-04-26T03:51:46.182Z,9.80
2018-04-26T03:54:13.581Z,9.80
2018-04-26T03:56:40.090Z,9.80
2018-04-26T03:59:06.610Z,9.80
2018-04-26T04:01:45.152Z,9.90
2018-04-26T04:04:23.830Z,9.90
2018-04-26T04:06:50.375Z,9.90
2018-04-26T04:09:17.150Z,9.90
2018-04-26T04:11:43.635Z,9.90
2018-04-26T04:14:10.113Z,9.80
2018-04-26T04:16:37.458Z,9.70
2018-04-26T04:19:03.943Z,9.60
2018-04-26T04:21:31.147Z,9.40
2018-04-26T04:23:57.645Z,9.40
2018-04-26T04:26:24.099Z,9.40
2018-04-26T04:28:50.666Z,9.30
2018-04-26T04:31:17.159Z,9.30
2018-04-26T04:33:43.654Z,9.30
2018-04-26T04:36:10.214Z,9.30
2018-04-26T04:38:37.437Z,9.30
2018-04-26T04:41:03.994Z,9.30
2018-04-26T04:43:30.826Z,9.30
2018-04-26T04:45:57.290Z,9.30
2018-04-26T04:48:23.760Z,9.30
2018-04-26T04:50:50.233Z,9.30
2018-04-26T04:53:16.721Z,9.40
2018-04-26T04:55:43.184Z,9.40
2018-04-26T04:58:09.616Z,9.40
2018-04-26T05:00:36.082Z,9.40
2018-04-26T05:03:03.277Z,9.30
2018-04-26T05:05:29.756Z,9.30
2018-04-26T05:07:56.215Z,9.30
2018-04-26T05:10:22.773Z,9.30
2018-04-26T05:12:49.291Z,9.40
2018-04-26T05:15:16.167Z,9.40
2018-04-26T05:17:43.504Z,9.50
2018-04-26T05:20:10.260Z,9.50
2018-04-26T05:22:36.755Z,9.50
2018-04-26T05:25:04.036Z,9.60
2018-04-26T05:27:31.019Z,9.60
2018-04-26T05:29:57.503Z,9.70
2018-04-26T05:32:24.662Z,9.80
2018-04-26T05:34:51.094Z,9.80
2018-04-26T05:37:17.527Z,9.90
2018-04-26T05:39:43.967Z,10.00
2018-04-26T05:42:10.433Z,10.10
2018-04-26T05:44:36.864Z,10.20
2018-04-26T05:47:03.278Z,10.20
2018-04-26T05:49:29.721Z,10.20
2018-04-26T05:51:56.149Z,10.30
2018-04-26T05:54:22.634Z,10.40
2018-04-26T05:56:49.836Z,10.70
2018-04-26T05:59:16.241Z,10.70
2018-04-26T06:01:42.653Z,10.90
2018-04-26T06:04:09.809Z,11.00
2018-04-26T06:06:36.983Z,10.90
2018-04-26T06:09:03.471Z,10.90
2018-04-26T06:11:29.902Z,10.90
2018-04-26T06:13:56.380Z,11.00
2018-04-26T06:16:22.822Z,11.00
2018-04-26T06:18:49.271Z,11.10
2018-04-26T06:21:15.707Z,11.20
2018-04-26T06:23:42.154Z,11.30
2018-04-26T06:26:08.586Z,11.30
2018-04-26T06:28:36.141Z,11.30
2018-04-26T06:31:02.716Z,11.40
2018-04-26T06:33:29.546Z,11.50
2018-04-26T06:35:56.002Z,11.40
2018-04-26T06:38:22.452Z,11.60
2018-04-26T06:40:48.928Z,11.60
2018-04-26T06:43:15.377Z,11.50
2018-04-26T06:45:41.823Z,11.60
2018-04-26T06:48:08.254Z,11.90
2018-04-26T06:50:34.709Z,12.30
2018-04-26T06:53:01.198Z,12.40
2018-04-26T06:55:27.609Z,12.50
2018-04-26T06:57:54.046Z,12.50
2018-04-26T07:00:20.544Z,12.40
2018-04-26T07:02:46.992Z,12.60
2018-04-26T07:05:13.422Z,12.70
2018-04-26T07:07:40.609Z,12.90
2018-04-26T07:10:07.037Z,12.90
2018-04-26T07:12:33.472Z,12.60
2018-04-26T07:14:59.903Z,12.40
2018-04-26T07:17:26.439Z,12.50
2018-04-26T07:19:52.874Z,12.60
2018-04-26T07:22:19.347Z,12.80
2018-04-26T07:24:45.772Z,13.10
2018-04-26T07:27:12.203Z,14.40
2018-04-26T07:29:38.634Z,14.10
2018-04-26T07:32:05.084Z,13.70
2018-04-26T07:34:31.523Z,13.40
2018-04-26T07:36:57.967Z,13.10
2018-04-26T07:39:24.490Z,13.10
2018-04-26T07:41:50.935Z,12.90
2018-04-26T07:44:18.100Z,13.40
2018-04-26T07:46:45.283Z,13.40
2018-04-26T07:49:11.748Z,13.40
2018-04-26T07:51:38.174Z,13.20
2018-04-26T07:54:04.604Z,13.70
2018-04-26T07:56:31.043Z,13.70
2018-04-26T07:58:57.488Z,13.80
2018-04-26T08:01:24.014Z,14.00
2018-04-26T08:03:51.129Z,14.30
2018-04-26T08:06:17.563Z,14.30
2018-04-26T08:08:43.985Z,14.90
2018-04-26T08:11:10.432Z,16.00
2018-04-26T08:13:36.904Z,16.00
2018-04-26T08:16:03.330Z,15.70
2018-04-26T08:18:29.766Z,15.70
2018-04-26T08:20:56.230Z,15.90
2018-04-26T08:23:23.431Z,17.00
2018-04-26T08:25:49.874Z,17.00
2018-04-26T08:28:16.317Z,17.80
2018-04-26T08:30:42.827Z,17.70
2018-04-26T08:33:09.366Z,18.00
2018-04-26T08:35:36.974Z,17.60
2018-04-26T08:38:03.549Z,16.80
2018-04-26T08:40:30.102Z,16.20
2018-04-26T08:42:56.636Z,16.00
2018-04-26T08:45:23.126Z,16.80
2018-04-26T08:47:49.662Z,16.50
2018-04-26T08:50:16.888Z,16.60
2018-04-26T08:52:43.389Z,16.70
2018-04-26T08:55:09.899Z,17.00
2018-04-26T08:57:36.442Z,17.70
2018-04-26T09:00:03.024Z,18.70
2018-04-26T09:02:29.601Z,19.00
2018-04-26T09:04:57.173Z,17.80
2018-04-26T09:07:23.777Z,17.80
2018-04-26T09:09:51.067Z,17.40
2018-04-26T09:12:17.508Z,17.40
2018-04-26T09:14:43.965Z,18.10
2018-04-26T09:17:10.506Z,19.60
2018-04-26T09:19:36.943Z,19.30
2018-04-26T09:22:03.411Z,18.90
2018-04-26T09:24:30.604Z,18.80
2018-04-26T09:26:57.060Z,18.80
2018-04-26T09:29:24.234Z,20.70
2018-04-26T09:31:50.685Z,20.60
2018-04-26T09:34:17.122Z,20.80
2018-04-26T09:36:43.570Z,20.00
2018-04-26T09:39:10.024Z,19.40
2018-04-26T09:41:36.571Z,19.20
2018-04-26T09:44:03.700Z,17.50
2018-04-26T09:46:30.145Z,17.40
2018-04-26T09:48:56.576Z,17.10
2018-04-26T09:51:23.003Z,17.50
2018-04-26T09:53:49.448Z,18.00
2018-04-26T09:56:15.877Z,18.30
2018-04-26T09:58:42.321Z,18.60
2018-04-26T10:01:08.798Z,19.20
2018-04-26T10:03:37.786Z,19.90
2018-04-26T10:06:04.321Z,19.90
2018-04-26T10:08:30.760Z,19.50
2018-04-26T10:10:57.980Z,18.20
2018-04-26T10:13:24.500Z,18.20
2018-04-26T10:15:51.046Z,18.10
2018-04-26T10:18:17.559Z,18.20
2018-04-26T10:20:44.080Z,18.40
2018-04-26T10:23:10.572Z,19.40
2018-04-26T10:25:36.998Z,19.20
2018-04-26T10:28:03.446Z,18.30
2018-04-26T10:30:29.923Z,17.50
2018-04-26T10:32:56.337Z,17.10
2018-04-26T10:35:23.568Z,17.30
2018-04-26T10:37:49.986Z,17.20
2018-04-26T10:40:16.424Z,17.90
2018-04-26T10:42:42.854Z,18.40
2018-04-26T10:45:09.328Z,19.30
2018-04-26T10:47:36.511Z,18.20
2018-04-26T10:50:02.978Z,18.20
2018-04-26T10:52:29.406Z,17.00
2018-04-26T10:54:55.834Z,16.50
2018-04-26T10:57:22.308Z,17.20
2018-04-26T10:59:49.519Z,18.60
2018-04-26T11:02:15.958Z,18.60
2018-04-26T11:04:42.404Z,18.10
2018-04-26T11:07:08.830Z,17.60
2018-04-26T11:09:35.265Z,17.20
2018-04-26T11:12:01.725Z,17.20
2018-04-26T11:14:28.870Z,17.10
2018-04-26T11:16:55.293Z,17.00
2018-04-26T11:19:21.742Z,16.80
2018-04-26T11:21:48.941Z,16.60
2018-04-26T11:24:15.373Z,16.60
2018-04-26T11:26:41.798Z,16.70
2018-04-26T11:29:08.264Z,16.80
2018-04-26T11:31:34.741Z,16.80
2018-04-26T11:34:01.935Z,16.50
2018-04-26T11:36:28.385Z,16.50
2018-04-26T11:38:54.965Z,16.60
2018-04-26T11:41:22.188Z,17.30
2018-04-26T11:43:49.967Z,17.30
2018-04-26T11:46:16.505Z,17.30
2018-04-26T11:48:43.906Z,16.70
2018-04-26T11:51:10.497Z,16.70
2018-04-26T11:53:37.004Z,16.70
2018-04-26T11:56:03.601Z,16.80
2018-04-26T11:58:31.016Z,16.90
2018-04-26T12:00:57.680Z,16.90
2018-04-26T12:03:24.217Z,17.00
2018-04-26T12:05:50.753Z,17.20
2018-04-26T12:08:17.238Z,17.40
2018-04-26T12:10:43.761Z,17.50
2018-04-26T12:13:11.223Z,17.50
2018-04-26T12:15:37.726Z,17.10
2018-04-26T12:18:04.206Z,17.40
2018-04-26T12:20:31.705Z,17.60
2018-04-26T12:22:58.946Z,18.20
2018-04-26T12:25:26.931Z,18.40
2018-04-26T12:27:53.425Z,18.30
2018-04-26T12:30:19.965Z,18.40
2018-04-26T12:32:47.446Z,18.10
2018-04-26T12:35:14.060Z,18.20
2018-04-26T12:37:41.669Z,18.30
2018-04-26T12:40:08.919Z,17.40
2018-04-26T12:42:35.401Z,17.40
2018-04-26T12:45:01.984Z,17.10
2018-04-26T12:47:28.540Z,17.20
2018-04-26T12:49:54.984Z,17.50
2018-04-26T12:52:21.408Z,17.80
2018-04-26T12:54:47.890Z,18.20
2018-04-26T12:57:14.382Z,18.40
2018-04-26T12:59:40.796Z,18.50
2018-04-26T13:02:08.032Z,18.20
2018-04-26T13:04:35.216Z,18.30
2018-04-26T13:07:01.644Z,18.30
2018-04-26T13:09:28.080Z,18.10
2018-04-26T13:11:54.512Z,17.80
2018-04-26T13:14:20.940Z,17.50
2018-04-26T13:16:47.382Z,17.30
2018-04-26T13:19:13.869Z,17.50
2018-04-26T13:21:41.066Z,18.10
2018-04-26T13:24:07.522Z,18.00
2018-04-26T13:26:33.953Z,17.90
2018-04-26T13:29:00.393Z,17.30
2018-04-26T13:31:26.853Z,16.90
2018-04-26T13:33:53.279Z,16.90
2018-04-26T13:36:19.726Z,16.80
2018-04-26T13:38:46.914Z,16.60
2018-04-26T13:41:14.086Z,16.30
2018-04-26T13:43:40.537Z,16.20
2018-04-26T13:46:06.979Z,16.20
2018-04-26T13:48:33.449Z,16.30
2018-04-26T13:51:05.289Z,16.80
2018-04-26T13:53:31.881Z,17.20
2018-04-26T13:55:59.314Z,17.40
2018-04-26T13:58:25.770Z,17.60
2018-04-26T14:00:52.229Z,17.60
2018-04-26T14:03:18.678Z,17.30
2018-04-26T14:05:45.115Z,17.00
2018-04-26T14:08:13.063Z,17.30
2018-04-26T14:10:39.496Z,17.30
2018-04-26T14:13:05.945Z,17.70
2018-04-26T14:15:32.389Z,17.50
2018-04-26T14:17:58.832Z,17.20
2018-04-26T14:20:26.040Z,16.90
2018-04-26T14:22:52.489Z,16.90
2018-04-26T14:25:18.967Z,16.80
2018-04-26T14:27:46.151Z,16.50
2018-04-26T14:30:12.595Z,16.50
2018-04-26T14:32:39.068Z,16.30
2018-04-26T14:35:06.336Z,16.70
2018-04-26T14:37:33.608Z,17.20
2018-04-26T14:39:59.997Z,17.10
2018-04-26T14:42:26.432Z,17.60
2018-04-26T14:44:52.907Z,17.70
2018-04-26T14:47:19.656Z,17.40
2018-04-26T14:49:46.273Z,17.40
2018-04-26T14:52:12.673Z,17.40
2018-04-26T14:54:39.120Z,17.30
2018-04-26T14:57:05.612Z,17.20
2018-04-26T14:59:32.084Z,17.20
2018-04-26T15:01:58.526Z,17.10
2018-04-26T15:04:25.694Z,16.90
2018-04-26T15:06:52.204Z,17.00
2018-04-26T15:09:19.395Z,17.20
2018-04-26T15:11:45.893Z,17.10
2018-04-26T15:14:13.815Z,17.10
2018-04-26T15:16:40.264Z,17.10
2018-04-26T15:19:06.717Z,16.90
2018-04-26T15:21:33.158Z,16.70
2018-04-26T15:23:59.600Z,16.50
2018-04-26T15:26:26.034Z,16.30
2018-04-26T15:28:52.751Z,16.30
2018-04-26T15:31:19.179Z,16.30
2018-04-26T15:33:45.646Z,16.30
2018-04-26T15:36:12.836Z,16.50
2018-04-26T15:38:39.370Z,16.40
2018-04-26T15:41:05.822Z,16.80
2018-04-26T15:43:32.266Z,17.00
2018-04-26T15:45:58.718Z,16.80
2018-04-26T15:48:25.174Z,16.60
2018-04-26T15:50:52.410Z,16.50
2018-04-26T15:53:30.938Z,16.50
2018-04-26T15:56:10.318Z,16.80
2018-04-26T16:01:49.974Z,17.00
2018-04-26T16:04:28.585Z,17.00
2018-04-26T16:07:07.227Z,16.90
2018-04-26T16:09:38.562Z,16.90
2018-04-26T16:12:11.164Z,16.60
2018-04-26T16:14:49.833Z,16.50
2018-04-26T16:17:36.267Z,16.40
2018-04-26T16:20:17.910Z,16.40
2018-04-26T16:23:02.583Z,16.40
2018-04-26T16:25:42.053Z,16.50
2018-04-26T16:28:26.742Z,16.40
2018-04-26T16:31:11.463Z,16.30
2018-04-26T16:33:50.015Z,16.30
2018-04-26T16:36:28.687Z,16.10
2018-04-26T16:39:16.581Z,16.10
2018-04-26T16:41:43.041Z,16.10
2018-04-26T16:44:09.477Z,16.10
2018-04-26T16:46:35.919Z,16.10
2018-04-26T16:49:02.422Z,16.10
2018-04-26T16:51:28.859Z,16.10
2018-04-26T16:53:55.306Z,16.00
2018-04-26T16:56:21.784Z,16.00
2018-04-26T16:58:48.216Z,15.90
2018-04-26T17:01:14.691Z,15.80
2018-04-26T17:03:41.127Z,15.90
2018-04-26T17:06:07.602Z,15.80
2018-04-26T17:08:35.016Z,15.80
2018-04-26T17:11:01.481Z,15.80
2018-04-26T17:13:28.721Z,15.60
2018-04-26T17:15:55.151Z,15.60
2018-04-26T17:18:21.581Z,15.60
2018-04-26T17:20:48.025Z,15.60
2018-04-26T17:23:14.491Z,15.60
2018-04-26T17:25:41.672Z,15.60
2018-04-26T17:28:08.215Z,15.60
2018-04-26T17:30:34.612Z,15.60
2018-04-26T17:33:01.800Z,15.50
2018-04-26T17:35:28.243Z,15.50
2018-04-26T17:37:54.709Z,15.30
2018-04-26T17:40:21.148Z,15.20
2018-04-26T17:42:47.631Z,15.10
2018-04-26T17:45:14.917Z,15.10
2018-04-26T17:47:41.375Z,15.10
2018-04-26T17:50:08.565Z,14.90
2018-04-26T17:52:35.009Z,14.90
2018-04-26T17:55:01.458Z,14.80
2018-04-26T17:57:27.916Z,14.80
2018-04-26T17:59:55.100Z,14.60
2018-04-26T18:02:21.556Z,14.60
2018-04-26T18:04:48.032Z,14.60
2018-04-26T18:07:14.466Z,14.50
2018-04-26T18:09:41.030Z,14.50
2018-04-26T18:12:07.577Z,14.40
2018-04-26T18:14:34.196Z,14.30
2018-04-26T18:17:01.553Z,14.10
2018-04-26T18:19:29.708Z,13.90
2018-04-26T18:21:56.294Z,13.90
2018-04-26T18:24:23.192Z,13.90
2018-04-26T18:26:50.517Z,13.80
2018-04-26T18:29:17.810Z,13.80
2018-04-26T18:31:45.592Z,13.70
2018-04-26T18:34:12.257Z,13.70
2018-04-26T18:36:38.937Z,13.60
2018-04-26T18:39:05.610Z,13.60
2018-04-26T18:41:33.348Z,13.40
2018-04-26T18:44:00.579Z,13.30
2018-04-26T18:46:27.043Z,13.30
2018-04-26T18:48:54.319Z,13.20
2018-04-26T18:51:20.927Z,13.20
2018-04-26T18:53:48.389Z,13.20
2018-04-26T18:56:14.944Z,13.10
2018-04-26T18:58:42.416Z,13.00
2018-04-26T19:01:09.027Z,12.90
2018-04-26T19:03:35.545Z,12.90
2018-04-26T19:06:02.137Z,12.90
2018-04-26T19:08:28.765Z,12.80
2018-04-26T19:10:55.308Z,12.70
2018-04-26T19:13:21.910Z,12.60
2018-04-26T19:15:49.300Z,12.50
2018-04-26T19:18:16.171Z,12.50
2018-04-26T19:20:42.734Z,12.40
2018-04-26T19:23:09.243Z,12.40
2018-04-26T19:25:35.898Z,12.30
2018-04-26T19:28:02.428Z,12.30
2018-04-26T19:30:29.021Z,12.30
2018-04-26T19:32:55.638Z,12.20
2018-04-26T19:35:22.970Z,12.00
2018-04-26T19:37:50.324Z,12.00
2018-04-26T19:40:16.857Z,12.00
2018-04-26T19:42:43.453Z,11.90
2018-04-26T19:45:10.017Z,11.90
2018-04-26T19:47:36.552Z,11.80
2018-04-26T19:50:03.136Z,11.80
2018-04-26T19:52:30.599Z,11.80
2018-04-26T19:54:57.875Z,11.70
2018-04-26T19:57:24.505Z,11.70
2018-04-26T20:09:36.035Z,11.70
2018-04-26T20:12:03.425Z,11.50
2018-04-26T20:14:30.227Z,11.50
2018-04-26T20:16:56.758Z,11.50
2018-04-26T20:19:23.333Z,11.50
2018-04-26T20:21:49.914Z,11.40
2018-04-26T20:24:17.316Z,11.20
2018-04-26T20:26:44.948Z,11.20
2018-04-26T20:29:11.483Z,11.10
2018-04-26T20:31:38.730Z,11.00
2018-04-26T20:34:05.405Z,10.90
2018-04-26T20:36:32.085Z,10.90
2018-04-26T20:38:58.715Z,10.90
2018-04-26T20:41:25.570Z,10.90
2018-04-26T20:43:52.391Z,10.80
2018-04-26T20:46:19.097Z,10.70
2018-04-26T20:48:46.514Z,10.50
2018-04-26T20:51:13.175Z,10.50
2018-04-26T20:53:40.577Z,10.60
2018-04-26T20:56:07.955Z,10.60
2018-04-26T20:58:34.595Z,10.50
2018-04-26T21:01:01.251Z,10.60
2018-04-26T21:03:27.808Z,10.50
2018-04-26T21:05:55.209Z,10.50
2018-04-26T21:08:21.823Z,10.40
2018-04-26T21:10:49.112Z,10.40
2018-04-26T21:13:15.752Z,10.40
2018-04-26T21:15:43.106Z,10.30
2018-04-26T21:18:09.638Z,10.30
2018-04-26T21:20:36.283Z,10.20
2018-04-26T21:23:03.009Z,10.10
2018-04-26T21:25:29.565Z,10.10
2018-04-26T21:27:56.045Z,10.00
2018-04-26T21:30:23.258Z,9.90
2018-04-26T21:32:49.876Z,9.90
2018-04-26T21:35:16.445Z,10.00
2018-04-26T21:37:43.613Z,10.00
2018-04-26T21:40:10.913Z,10.00
2018-04-26T21:42:37.431Z,9.90
2018-04-26T21:45:04.861Z,9.90
2018-04-26T21:47:32.150Z,9.80
2018-04-26T21:50:04.739Z,9.80
2018-04-26T21:52:37.896Z,9.80
2018-04-26T21:55:11.266Z,9.80
2018-04-26T21:57:43.744Z,9.80
2018-04-26T22:00:16.335Z,9.80
2018-04-26T22:02:44.403Z,9.80
2018-04-26T22:08:09.302Z,9.80
2018-04-26T22:10:35.927Z,9.70
2018-04-26T22:13:02.472Z,9.70
2018-04-26T22:15:28.998Z,9.70
2018-04-26T22:17:55.443Z,9.70
2018-04-26T22:20:21.963Z,9.70
2018-04-26T22:22:48.476Z,9.70
2018-04-26T22:25:15.862Z,9.70
2018-04-26T22:27:42.465Z,9.70
2018-04-26T22:30:08.989Z,9.70
2018-04-26T22:32:35.523Z,9.70
2018-04-26T22:35:02.685Z,9.70
2018-04-26T22:37:30.384Z,9.70
2018-04-26T22:39:57.666Z,9.60
2018-04-26T22:42:24.950Z,9.60
2018-04-26T22:44:51.527Z,9.60
2018-04-26T22:47:18.116Z,9.60
2018-04-26T22:52:18.097Z,9.60
2018-04-26T22:54:44.554Z,9.50
2018-04-26T22:57:12.668Z,9.50
2018-04-26T22:59:39.178Z,9.50
2018-04-26T23:02:06.444Z,9.40
2018-04-26T23:04:33.001Z,9.40
2018-04-26T23:06:59.536Z,9.30
2018-04-26T23:09:25.967Z,9.30
2018-04-26T23:11:52.602Z,9.20
2018-04-26T23:14:19.185Z,9.20
2018-04-26T23:16:45.750Z,9.20
2018-04-26T23:19:12.286Z,9.10
2018-04-26T23:21:40.642Z,9.10
2018-04-26T23:24:07.116Z,9.00
2018-04-26T23:26:33.665Z,8.90
2018-04-26T23:29:01.383Z,8.90
2018-04-26T23:31:29.305Z,8.90
2018-04-26T23:33:55.753Z,8.90
2018-04-26T23:36:22.329Z,8.90
2018-04-26T23:38:49.567Z,8.70
2018-04-26T23:41:16.133Z,8.70
2018-04-26T23:43:43.383Z,8.70
2018-04-26T23:46:10.937Z,8.60
2018-04-26T23:48:38.165Z,8.60
2018-04-26T23:51:04.840Z,8.60
2018-04-26T23:53:31.348Z,8.70
2018-04-26T23:55:57.842Z,8.50
2018-04-26T23:58:25.938Z,8.40
